Time;durP1;ratioP1;P1;durP2;ratioP2;P2;SDS_P1;SDS_P2;PMS_P1;PMS_P2;Temp;Humidity;BMP_temperature;BMP_pressure;BME280_temperature;BME280_humidity;BME280_pressure;Samples;Min_cycle;Max_cycle;Signal;HPM_P1;HPM_P2
2021/12/16 00:08:14;;;;;;;18.60;11.40;;;;;;;3.90;64.32;101377.27;117360;1185;21857;-56
2021/12/16 00:11:00;;;;;;;15.70;10.60;;;;;;;3.86;64.28;101378.56;117393;1184;21858;-56
2021/12/16 00:31:03;;;;;;;18.20;12.30;;;;;;;3.79;64.41;101367.55;117276;1183;23453;-57
2021/12/16 00:35:48;;;;;;;21.10;15.10;;;;;;;3.75;64.47;101368.84;117297;1186;23532;-56
2021/12/16 00:38:17;;;;;;;21.50;15.00;;;;;;;3.72;64.42;101365.96;117332;1186;21868;-61
2021/12/16 00:40:45;;;;;;;19.70;13.10;;;;;;;3.69;64.34;101365.71;117333;1186;21858;-60
2021/12/16 00:43:20;;;;;;;20.20;13.50;;;;;;;3.68;64.45;101365.84;117362;1186;21857;-60
2021/12/16 00:46:14;;;;;;;19.40;12.60;;;;;;;3.69;64.41;101362.23;117331;1186;21867;-56
2021/12/16 00:57:03;;;;;;;18.50;13.00;;;;;;;3.69;64.35;101360.48;117328;1186;21876;-60
2021/12/16 00:59:36;;;;;;;18.80;11.90;;;;;;;3.69;64.34;101361.35;117358;1186;21856;-57
2021/12/16 01:57:23;;;;;;;22.40;14.30;;;;;;;3.59;64.33;101334.11;117394;1185;22908;-60
2021/12/16 02:00:00;;;;;;;22.50;15.40;;;;;;;3.59;64.43;101333.41;117387;1186;21861;-57
2021/12/16 02:08:35;;;;;;;20.20;13.60;;;;;;;3.62;64.42;101338.02;117387;1186;21857;-61
2021/12/16 02:10:45;;;;;;;21.10;14.40;;;;;;;3.67;64.09;101332.84;117237;1187;23593;-58
2021/12/16 02:35:45;;;;;;;22.20;15.30;;;;;;;3.69;64.13;101340.02;117156;1186;21847;-60
2021/12/16 02:38:18;;;;;;;23.80;16.70;;;;;;;3.69;64.15;101341.91;117328;1186;22915;-60
2021/12/16 02:40:47;;;;;;;26.50;19.00;;;;;;;3.67;63.96;101338.89;117327;1186;24161;-56
2021/12/16 02:48:36;;;;;;;24.80;17.90;;;;;;;3.64;64.09;101334.98;117289;1183;23459;-56
2021/12/16 02:51:09;;;;;;;26.70;17.20;;;;;;;3.64;64.09;101338.81;117323;1186;23535;-60
2021/12/16 02:53:43;;;;;;;25.30;17.70;;;;;;;3.73;64.05;101346.02;117305;1186;22838;-56
2021/12/16 02:56:12;;;;;;;27.70;17.80;;;;;;;3.77;63.81;101347.52;117351;1184;21874;-60
2021/12/16 02:58:42;;;;;;;21.40;16.00;;;;;;;3.71;63.89;101346.84;117352;1186;21865;-57
2021/12/16 03:01:13;;;;;;;;;;;;;;;3.68;63.95;101346.73;117237;1186;21851;-61
2021/12/16 03:03:41;;;;;;;;;;;;;;;3.92;63.54;101339.86;117364;1183;23353;-60
2021/12/16 03:06:10;;;;;;;23.60;15.30;;;;;;;3.92;63.48;101338.27;117454;1183;21858;-56
2021/12/16 03:08:40;;;;;;;20.50;14.10;;;;;;;3.89;63.64;101333.68;117294;1186;22846;-56
2021/12/16 03:13:51;;;;;;;21.60;14.90;;;;;;;3.86;63.70;101335.86;117346;1186;22988;-61
2021/12/16 03:21:51;;;;;;;21.50;15.60;;;;;;;3.91;63.44;101339.98;117164;1188;21901;-61
2021/12/16 03:30:03;;;;;;;21.60;14.30;;;;;;;3.86;63.32;101347.13;117270;1184;21929;-60
2021/12/16 03:32:58;;;;;;;20.80;13.20;;;;;;;3.88;63.49;101350.13;117313;1186;21848;-56
2021/12/16 03:38:15;;;;;;;22.00;13.30;;;;;;;3.96;63.25;101349.35;117371;1186;21870;-57
2021/12/16 03:40:43;;;;;;;18.50;12.80;;;;;;;3.95;63.24;101350.70;117279;1183;22645;-61
2021/12/16 03:43:17;;;;;;;18.40;12.80;;;;;;;3.98;63.40;101351.99;117356;1183;21858;-55
2021/12/16 03:48:46;;;;;;;22.80;14.20;;;;;;;3.94;63.40;101351.34;117289;1183;23483;-59
2021/12/16 03:51:25;;;;;;;20.50;13.30;;;;;;;3.93;63.48;101350.63;117283;1186;21858;-56
2021/12/16 03:53:57;;;;;;;19.60;13.70;;;;;;;3.94;63.43;101347.70;117295;1184;21902;-61
2021/12/16 03:56:25;;;;;;;18.40;11.30;;;;;;;3.94;63.50;101352.25;117291;1184;22615;-60
2021/12/16 03:58:54;;;;;;;18.90;12.10;;;;;;;3.96;63.43;101347.08;117331;1186;21876;-56
2021/12/16 04:01:25;;;;;;;23.20;14.90;;;;;;;3.96;63.42;101348.83;117285;1186;21856;-61
2021/12/16 04:03:53;;;;;;;29.30;16.60;;;;;;;3.92;63.38;101347.83;117342;1182;24145;-61
2021/12/16 04:06:22;;;;;;;22.60;15.50;;;;;;;3.85;63.73;101347.63;117305;1188;21865;-56
2021/12/16 04:08:52;;;;;;;55.70;30.80;;;;;;;3.83;63.60;101348.07;117361;1185;23584;-56
2021/12/16 04:11:25;;;;;;;37.20;21.50;;;;;;;3.81;63.74;101342.98;117320;1183;21858;-56
2021/12/16 04:14:00;;;;;;;23.30;15.50;;;;;;;3.81;63.62;101343.67;117352;1186;22912;-60
2021/12/16 04:16:29;;;;;;;21.30;14.90;;;;;;;3.80;63.50;101342.60;117411;1183;23465;-61
2021/12/16 04:18:59;;;;;;;20.50;14.20;;;;;;;3.78;63.65;101339.05;117324;1182;23539;-56
2021/12/16 04:21:28;;;;;;;;;;;;;;;3.75;63.70;101342.80;117327;1182;23426;-61
2021/12/16 04:23:57;;;;;;;17.70;12.30;;;;;;;3.75;63.75;101342.09;117408;1185;22905;-56
2021/12/16 04:26:26;;;;;;;19.20;13.50;;;;;;;3.75;63.66;101346.77;117150;1182;23475;-61
2021/12/16 04:28:55;;;;;;;18.40;12.70;;;;;;;3.78;63.59;101341.33;117335;1186;22648;-61
2021/12/16 04:31:24;;;;;;;20.20;13.50;;;;;;;3.80;63.64;101351.45;117320;1186;22896;-61
2021/12/16 04:33:53;;;;;;;18.80;12.30;;;;;;;3.81;63.65;101354.06;117369;1186;23572;-61
2021/12/16 04:36:21;;;;;;;21.90;12.70;;;;;;;3.82;63.62;101356.70;117333;1186;22914;-57
2021/12/16 04:38:52;;;;;;;18.60;12.90;;;;;;;3.85;63.68;101359.08;117336;1183;21861;-61
2021/12/16 04:41:28;;;;;;;21.20;12.80;;;;;;;3.88;63.59;101357.77;117327;1186;23445;-57
2021/12/16 04:43:58;;;;;;;21.20;13.30;;;;;;;3.89;63.56;101359.36;117373;1186;21866;-56
2021/12/16 04:46:28;;;;;;;17.20;12.50;;;;;;;3.88;63.61;101361.23;117302;1183;21858;-57
2021/12/16 04:48:58;;;;;;;18.90;12.40;;;;;;;3.85;63.51;101359.25;117349;1186;22712;-56
2021/12/16 04:51:28;;;;;;;19.00;12.00;;;;;;;3.83;63.48;101362.15;117307;1189;21820;-56
2021/12/16 04:53:57;;;;;;;19.40;13.10;;;;;;;3.81;63.34;101360.69;117357;1185;21853;-61
2021/12/16 04:56:26;;;;;;;18.90;11.70;;;;;;;3.82;63.50;101366.25;117406;1184;21858;-56
2021/12/16 04:58:54;;;;;;;18.30;12.30;;;;;;;3.82;63.44;101369.23;117372;1185;23437;-57
2021/12/16 05:01:23;;;;;;;15.40;11.00;;;;;;;3.82;63.45;101367.51;117317;1183;21902;-62
2021/12/16 05:03:53;;;;;;;24.00;13.90;;;;;;;3.82;63.46;101369.77;117378;1183;21864;-62
2021/12/16 05:06:21;;;;;;;23.70;13.00;;;;;;;3.82;63.53;101369.56;117337;1182;22912;-62
2021/12/16 05:08:50;;;;;;;17.80;11.30;;;;;;;3.81;63.41;101365.38;117317;1183;21863;-62
2021/12/16 05:11:19;;;;;;;18.30;12.10;;;;;;;3.81;63.37;101359.12;117351;1186;22159;-57
2021/12/16 05:13:49;;;;;;;18.70;12.30;;;;;;;3.81;63.40;101353.57;117320;1186;23458;-57
2021/12/16 05:16:37;;;;;;;20.00;12.40;;;;;;;3.80;63.35;101358.05;117291;1186;21868;-57
2021/12/16 05:19:05;;;;;;;16.40;11.20;;;;;;;3.80;63.46;101363.60;117378;1186;22906;-62
2021/12/16 05:26:43;;;;;;;17.70;10.30;;;;;;;3.86;63.42;101364.14;117327;1182;22321;-60
2021/12/16 05:29:12;;;;;;;19.00;11.50;;;;;;;3.91;63.59;101360.80;117322;1186;21885;-60
2021/12/16 05:31:44;;;;;;;23.60;11.70;;;;;;;3.96;63.56;101353.86;117319;1182;23752;-60
2021/12/16 05:34:12;;;;;;;17.00;11.60;;;;;;;4.01;63.41;101352.95;117316;1186;23577;-59
2021/12/16 05:36:41;;;;;;;22.80;12.60;;;;;;;4.03;63.58;101357.73;117207;1187;22528;-62
2021/12/16 05:39:10;;;;;;;20.50;11.50;;;;;;;4.06;63.42;101359.54;117350;1185;23541;-59
2021/12/16 05:41:39;;;;;;;22.90;11.20;;;;;;;4.07;63.62;101359.73;117410;1182;22327;-64
2021/12/16 05:44:07;;;;;;;21.80;12.20;;;;;;;4.07;63.37;101355.73;117332;1183;21857;-59
2021/12/16 05:46:37;;;;;;;21.40;12.30;;;;;;;4.09;63.53;101359.27;117323;1184;22916;-65
2021/12/16 05:49:08;;;;;;;23.80;11.90;;;;;;;4.07;63.40;101364.25;117358;1182;22911;-59
2021/12/16 05:51:42;;;;;;;21.40;12.80;;;;;;;4.05;63.50;101368.34;117302;1187;21944;-63
2021/12/16 05:54:10;;;;;;;18.40;12.50;;;;;;;4.04;63.49;101371.13;117325;1184;24175;-59
2021/12/16 05:56:39;;;;;;;25.20;12.30;;;;;;;4.02;63.74;101379.72;117073;1187;21899;-59
2021/12/16 05:59:11;;;;;;;17.90;12.60;;;;;;;4.03;63.90;101386.53;117396;1185;23065;-59
2021/12/16 06:01:40;;;;;;;22.10;12.50;;;;;;;4.08;63.87;101380.94;117382;1185;22942;-62
2021/12/16 06:04:09;;;;;;;19.10;12.30;;;;;;;4.12;63.82;101381.42;117164;1187;21859;-58
2021/12/16 06:06:39;;;;;;;25.70;13.00;;;;;;;4.09;63.70;101379.77;117342;1186;23465;-58
2021/12/16 06:09:08;;;;;;;15.80;11.50;;;;;;;4.07;63.84;101381.61;117355;1186;22742;-65
2021/12/16 06:11:42;;;;;;;27.70;13.20;;;;;;;4.05;63.82;101381.20;117421;1186;23458;-63
2021/12/16 06:14:22;;;;;;;22.30;11.90;;;;;;;4.09;63.85;101384.29;117378;1184;21862;-61
2021/12/16 06:28:06;;;;;;;23.40;14.70;;;;;;;4.24;63.66;101398.12;117392;1186;22904;-60
2021/12/16 06:30:40;;;;;;;19.00;12.30;;;;;;;4.28;63.60;101395.80;117362;1184;24146;-59
2021/12/16 06:33:12;;;;;;;19.00;12.70;;;;;;;4.29;63.40;101395.31;117342;1180;23449;-64
2021/12/16 06:35:41;;;;;;;18.10;12.50;;;;;;;4.29;63.48;101394.77;117363;1183;21867;-63
2021/12/16 06:38:10;;;;;;;20.00;13.10;;;;;;;4.29;63.62;101390.79;117406;1186;21867;-64
2021/12/16 06:40:39;;;;;;;19.40;13.00;;;;;;;4.31;63.77;101393.27;117347;1185;21868;-59
2021/12/16 06:43:10;;;;;;;19.90;12.80;;;;;;;4.31;63.49;101399.20;117335;1184;22796;-64
2021/12/16 06:45:41;;;;;;;20.40;13.40;;;;;;;4.33;63.31;101401.17;117129;1186;22715;-64
2021/12/16 06:48:16;;;;;;;22.30;13.60;;;;;;;4.35;63.46;101399.12;117356;1183;22916;-64
2021/12/16 06:50:58;;;;;;;19.50;13.00;;;;;;;4.36;63.55;101396.04;117320;1186;21859;-64
2021/12/16 06:53:46;;;;;;;18.70;12.90;;;;;;;4.36;63.46;101390.46;117369;1188;21860;-64
2021/12/16 06:56:25;;;;;;;16.70;11.30;;;;;;;4.36;63.33;101384.92;117297;1186;22062;-58
2021/12/16 06:59:21;;;;;;;18.10;12.40;;;;;;;4.36;63.49;101387.00;117433;1182;21861;-64
2021/12/16 07:02:04;;;;;;;16.90;11.50;;;;;;;4.37;63.38;101384.08;117369;1185;24144;-59
2021/12/16 07:04:36;;;;;;;20.70;12.60;;;;;;;4.39;63.33;101390.04;117288;1185;21899;-58
2021/12/16 07:07:05;;;;;;;17.40;12.10;;;;;;;4.39;63.53;101385.54;117323;1184;23010;-58
2021/12/16 07:09:37;;;;;;;21.40;13.90;;;;;;;4.40;63.49;101389.73;117327;1185;21857;-58
2021/12/16 07:12:09;;;;;;;15.90;11.10;;;;;;;4.41;63.39;101391.48;117337;1185;21980;-63
2021/12/16 07:14:39;;;;;;;17.70;12.20;;;;;;;4.40;63.43;101392.70;117343;1185;21869;-59
2021/12/16 07:17:12;;;;;;;20.40;12.60;;;;;;;4.39;63.52;101392.48;117358;1185;23939;-59
2021/12/16 07:19:41;;;;;;;19.00;12.70;;;;;;;4.40;63.50;101399.45;117349;1181;21860;-58
2021/12/16 07:22:10;;;;;;;19.10;12.00;;;;;;;4.45;63.59;101405.48;117292;1186;21865;-59
2021/12/16 07:24:38;;;;;;;17.90;12.40;;;;;;;4.48;63.56;101406.13;117261;1186;21859;-60
2021/12/16 07:27:13;;;;;;;17.80;11.40;;;;;;;4.45;63.48;101409.34;117251;1186;23438;-62
2021/12/16 07:29:42;;;;;;;21.30;13.70;;;;;;;4.39;63.21;101409.49;117276;1183;21861;-60
2021/12/16 07:32:10;;;;;;;21.00;13.30;;;;;;;4.35;63.35;101407.83;117326;1184;21858;-60
2021/12/16 07:34:39;;;;;;;20.70;12.80;;;;;;;4.33;63.21;101402.37;117357;1184;21869;-57
2021/12/16 07:37:08;;;;;;;20.00;13.70;;;;;;;4.31;63.34;101402.31;117373;1182;21857;-61
2021/12/16 07:39:38;;;;;;;24.70;15.90;;;;;;;4.30;63.31;101396.04;117387;1185;23002;-61
2021/12/16 07:42:08;;;;;;;;;;;;;;;4.30;63.28;101399.31;117342;1185;22103;-57
2021/12/16 07:44:37;;;;;;;20.10;13.20;;;;;;;4.30;63.40;101402.12;117363;1184;21871;-60
2021/12/16 07:47:11;;;;;;;22.40;14.20;;;;;;;4.27;63.70;101402.02;117266;1182;24054;-60
2021/12/16 07:49:41;;;;;;;23.10;14.10;;;;;;;4.25;63.55;101397.61;117203;1186;21869;-59
2021/12/16 07:52:16;;;;;;;;;;;;;;;4.23;63.76;101398.94;117370;1185;21904;-57
2021/12/16 07:54:44;;;;;;;20.70;13.50;;;;;;;4.23;63.69;101395.11;117363;1183;23513;-60
2021/12/16 07:57:15;;;;;;;26.00;15.60;;;;;;;4.22;63.64;101396.83;117311;1185;22985;-56
2021/12/16 07:59:44;;;;;;;23.10;15.00;;;;;;;4.20;63.66;101396.05;117332;1186;22915;-61
2021/12/16 08:02:13;;;;;;;28.40;15.10;;;;;;;4.19;63.60;101394.49;117298;1181;23850;-60
2021/12/16 08:04:45;;;;;;;26.60;14.90;;;;;;;4.15;63.67;101394.06;117358;1182;24124;-61
2021/12/16 08:07:17;;;;;;;24.70;15.00;;;;;;;4.17;63.78;101388.86;117324;1184;22948;-56
2021/12/16 08:09:45;;;;;;;24.80;14.90;;;;;;;4.22;63.57;101393.17;117329;1186;22985;-62
2021/12/16 08:12:14;;;;;;;21.20;13.40;;;;;;;4.28;63.70;101395.95;117341;1186;24702;-56
2021/12/16 08:14:43;;;;;;;21.60;13.40;;;;;;;4.29;63.47;101389.91;117308;1183;22625;-56
2021/12/16 08:17:12;;;;;;;20.00;12.60;;;;;;;4.25;63.56;101381.45;117427;1185;21878;-63
2021/12/16 08:19:41;;;;;;;20.60;13.10;;;;;;;4.22;63.55;101376.16;117524;1185;21859;-62
2021/12/16 08:22:09;;;;;;;21.10;12.80;;;;;;;4.21;63.62;101384.64;117336;1183;21858;-62
2021/12/16 08:24:39;;;;;;;21.40;14.40;;;;;;;4.21;63.65;101391.74;117354;1183;23536;-58
2021/12/16 08:27:09;;;;;;;19.40;12.60;;;;;;;4.21;63.73;101394.89;119371;1185;21819;-63
2021/12/16 08:29:40;;;;;;;15.80;11.00;;;;;;;4.22;63.86;101401.16;118513;1184;23563;-61
2021/12/16 08:32:11;;;;;;;15.40;10.70;;;;;;;4.25;63.64;101397.79;117325;1186;23563;-55
2021/12/16 08:34:43;;;;;;;18.90;11.10;;;;;;;4.29;63.81;101388.70;117408;1186;21906;-56
2021/12/16 08:37:11;;;;;;;17.40;11.30;;;;;;;4.33;63.95;101386.56;117337;1184;23458;-63
2021/12/16 08:39:39;;;;;;;15.20;10.90;;;;;;;4.36;63.59;101399.69;117311;1184;23547;-56
2021/12/16 08:42:09;;;;;;;16.00;10.70;;;;;;;4.44;63.89;101402.52;117245;1184;22954;-56
2021/12/16 08:44:37;;;;;;;15.70;10.40;;;;;;;4.48;63.86;101401.92;117389;1185;22632;-56
2021/12/16 08:47:08;;;;;;;15.30;9.60;;;;;;;4.52;63.87;101402.05;117356;1182;21858;-60
2021/12/16 08:49:36;;;;;;;18.90;11.20;;;;;;;4.56;63.97;101403.05;117340;1185;21851;-56
2021/12/16 08:52:08;;;;;;;13.60;10.10;;;;;;;4.59;63.84;101394.45;117336;1181;21870;-61
2021/12/16 08:54:37;;;;;;;16.30;10.60;;;;;;;4.60;63.97;101391.17;117410;1184;21868;-56
2021/12/16 08:57:08;;;;;;;14.60;9.80;;;;;;;4.56;64.01;101395.57;117306;1186;22345;-56
2021/12/16 08:59:37;;;;;;;19.30;11.60;;;;;;;4.60;63.73;101402.46;117309;1184;23467;-56
2021/12/16 09:02:07;;;;;;;19.00;12.40;;;;;;;4.62;63.71;101388.42;117360;1186;22999;-60
2021/12/16 09:04:37;;;;;;;18.50;12.20;;;;;;;4.58;63.61;101382.60;117295;1184;21864;-60
2021/12/16 09:07:07;;;;;;;17.00;10.20;;;;;;;4.56;63.66;101381.14;117362;1185;24140;-61
2021/12/16 09:09:39;;;;;;;18.10;11.40;;;;;;;4.56;63.73;101387.05;117313;1180;23458;-56
2021/12/16 09:12:14;;;;;;;16.40;11.20;;;;;;;4.58;63.79;101390.40;117402;1184;22983;-56
2021/12/16 09:14:43;;;;;;;19.40;12.40;;;;;;;4.57;63.81;101391.95;117410;1185;21870;-62
2021/12/16 09:17:14;;;;;;;16.60;10.90;;;;;;;4.56;63.66;101389.64;117282;1186;23047;-62
2021/12/16 09:19:46;;;;;;;15.20;10.30;;;;;;;4.56;63.68;101397.48;117322;1183;22915;-61
2021/12/16 09:22:16;;;;;;;15.00;10.50;;;;;;;4.53;63.56;101393.23;117123;1189;21859;-62
2021/12/16 09:24:46;;;;;;;16.50;11.00;;;;;;;4.53;63.75;101393.03;117289;1185;23461;-58
2021/12/16 09:27:15;;;;;;;16.90;10.60;;;;;;;4.54;63.57;101387.52;117306;1186;21892;-60
2021/12/16 09:29:43;;;;;;;15.50;10.70;;;;;;;4.53;63.80;101387.82;117365;1184;22633;-56
2021/12/16 09:32:12;;;;;;;14.00;10.50;;;;;;;4.54;63.97;101384.04;117319;1176;22640;-56
2021/12/16 09:34:41;;;;;;;14.60;10.50;;;;;;;4.58;63.98;101381.02;117423;1186;21871;-56
2021/12/16 09:37:10;;;;;;;18.10;12.20;;;;;;;4.59;63.89;101378.79;117315;1186;21861;-57
2021/12/16 09:39:39;;;;;;;14.50;10.00;;;;;;;4.59;63.55;101370.96;117328;1185;24146;-58
2021/12/16 09:42:09;;;;;;;13.60;9.50;;;;;;;4.59;63.85;101365.78;117333;1186;21859;-62
2021/12/16 09:44:38;;;;;;;12.80;9.10;;;;;;;4.61;63.57;101369.46;117297;1186;24152;-62
2021/12/16 09:47:12;;;;;;;17.60;11.30;;;;;;;4.63;63.79;101375.77;117327;1178;23256;-58
2021/12/16 09:49:40;;;;;;;15.80;11.90;;;;;;;4.65;63.75;101369.56;117277;1186;21862;-62
2021/12/16 09:52:10;;;;;;;13.20;9.60;;;;;;;4.66;63.82;101360.73;117337;1186;21858;-57
2021/12/16 09:54:40;;;;;;;16.60;10.80;;;;;;;4.68;63.65;101357.64;118401;1186;22972;-62
2021/12/16 09:57:08;;;;;;;17.10;10.90;;;;;;;4.68;63.81;101355.58;118344;1184;21904;-57
2021/12/16 09:59:37;;;;;;;16.50;11.10;;;;;;;4.73;63.93;101353.98;117369;1185;22833;-64
2021/12/16 10:02:09;;;;;;;18.60;12.50;;;;;;;4.78;63.95;101350.28;117206;1186;23537;-57
2021/12/16 10:04:37;;;;;;;14.50;10.40;;;;;;;4.82;63.99;101353.16;117342;1187;21898;-61
2021/12/16 10:07:21;;;;;;;22.20;13.70;;;;;;;4.83;64.21;101357.54;117331;1184;21869;-61
2021/12/16 10:09:51;;;;;;;15.20;10.90;;;;;;;4.86;64.06;101353.45;117376;1186;21864;-57
2021/12/16 10:12:24;;;;;;;16.00;12.40;;;;;;;4.86;64.11;101354.32;117341;1184;21862;-57
2021/12/16 10:17:32;;;;;;;20.40;13.70;;;;;;;4.93;63.93;101353.78;117270;1186;21891;-57
2021/12/16 10:20:06;;;;;;;16.40;10.80;;;;;;;4.96;64.15;101347.80;117260;1176;23841;-61
2021/12/16 10:22:40;;;;;;;16.50;11.40;;;;;;;5.00;64.01;101346.14;117339;1181;23000;-57
2021/12/16 10:25:26;;;;;;;18.90;11.50;;;;;;;5.00;63.94;101343.36;117317;1186;22912;-57
2021/12/16 10:27:56;;;;;;;16.60;9.80;;;;;;;4.99;64.10;101338.64;117312;1186;21855;-57
2021/12/16 10:30:26;;;;;;;14.20;10.40;;;;;;;4.97;63.75;101331.81;117379;1183;22916;-61
2021/12/16 10:32:55;;;;;;;14.00;10.10;;;;;;;4.97;63.80;101330.77;117367;1185;22922;-61
2021/12/16 10:35:31;;;;;;;11.60;8.30;;;;;;;5.00;63.73;101329.29;117345;1185;22932;-57
2021/12/16 10:38:03;;;;;;;15.00;9.10;;;;;;;4.94;63.94;101323.91;117338;1186;21894;-62
2021/12/16 10:40:44;;;;;;;14.00;10.00;;;;;;;4.92;64.03;101314.98;117262;1184;24152;-62
2021/12/16 10:43:52;;;;;;;11.40;8.30;;;;;;;4.90;64.03;101314.60;117291;1184;23463;-58
2021/12/16 10:46:26;;;;;;;14.00;9.50;;;;;;;4.86;64.26;101315.89;117299;1178;22080;-58
2021/12/16 10:48:57;;;;;;;12.70;8.10;;;;;;;4.83;63.89;101318.58;117328;1182;22914;-62
2021/12/16 10:51:36;;;;;;;12.40;8.80;;;;;;;4.81;63.94;101319.41;117345;1184;23567;-58
2021/12/16 10:54:17;;;;;;;13.50;8.70;;;;;;;4.82;64.03;101315.45;117328;1184;22896;-58
2021/12/16 10:56:45;;;;;;;;;;;;;;;4.83;64.04;101311.28;117259;1182;22813;-58
2021/12/16 10:59:21;;;;;;;12.70;8.10;;;;;;;4.81;63.98;101302.88;117065;1187;22917;-56
2021/12/16 11:01:51;;;;;;;12.50;8.30;;;;;;;4.83;63.99;101303.28;117363;1186;23462;-56
2021/12/16 11:04:30;;;;;;;11.90;8.60;;;;;;;4.79;63.96;101302.66;117318;1186;21858;-60
2021/12/16 11:07:18;;;;;;;13.90;9.00;;;;;;;4.75;63.96;101303.42;117296;1184;22933;-57
2021/12/16 11:09:56;;;;;;;12.70;8.70;;;;;;;4.70;64.09;101301.91;117336;1182;24163;-60
2021/12/16 11:12:56;;;;;;;14.00;9.00;;;;;;;4.68;64.04;101298.88;117308;1181;21874;-61
2021/12/16 11:15:33;;;;;;;12.20;8.10;;;;;;;4.66;64.00;101293.96;117292;1185;23634;-56
2021/12/16 11:18:15;;;;;;;13.90;8.20;;;;;;;4.62;64.14;101293.00;117360;1183;21976;-56
2021/12/16 11:21:06;;;;;;;11.50;7.60;;;;;;;4.60;64.00;101298.68;117333;1184;21892;-57
2021/12/16 11:23:40;;;;;;;13.00;7.90;;;;;;;4.59;64.01;101295.71;117339;1186;21861;-60
2021/12/16 11:26:16;;;;;;;11.30;8.30;;;;;;;4.59;63.93;101294.84;117116;1187;23544;-57
2021/12/16 11:28:50;;;;;;;16.60;10.30;;;;;;;4.61;64.03;101288.46;117124;1188;21966;-57
2021/12/16 11:31:26;;;;;;;18.70;11.00;;;;;;;4.62;63.96;101283.77;117103;1185;22635;-60
2021/12/16 11:33:55;;;;;;;11.50;8.10;;;;;;;4.67;64.01;101283.55;117117;1187;21861;-61
2021/12/16 11:36:38;;;;;;;13.90;8.10;;;;;;;4.76;63.81;101278.41;117207;1184;23566;-60
2021/12/16 11:39:16;;;;;;;13.80;8.30;;;;;;;4.83;64.03;101279.63;118000;1186;23570;-57
2021/12/16 11:41:46;;;;;;;11.40;7.80;;;;;;;4.88;64.05;101284.61;117083;1187;22533;-57
2021/12/16 11:44:33;;;;;;;11.10;7.40;;;;;;;4.90;63.99;101282.95;117195;1184;23580;-60
2021/12/16 11:47:08;;;;;;;10.20;6.90;;;;;;;4.94;63.74;101283.02;117291;1189;21889;-60
2021/12/16 11:49:37;;;;;;;10.30;7.10;;;;;;;4.94;63.86;101284.25;117305;1186;21864;-56
2021/12/16 11:52:09;;;;;;;12.60;8.30;;;;;;;4.97;64.06;101283.63;117298;1183;21864;-58
2021/12/16 11:54:42;;;;;;;14.30;8.50;;;;;;;5.02;64.16;101288.63;117250;1186;21864;-57
2021/12/16 11:57:26;;;;;;;11.50;7.60;;;;;;;5.03;63.86;101288.48;117147;1187;21884;-57
2021/12/16 12:00:04;;;;;;;10.80;7.00;;;;;;;5.02;64.01;101284.29;117205;1184;21854;-57
2021/12/16 12:02:56;;;;;;;9.20;6.30;;;;;;;5.03;63.91;101285.90;117157;1184;23003;-60
2021/12/16 12:05:31;;;;;;;10.60;6.40;;;;;;;5.04;63.98;101284.52;117250;1186;21891;-60
2021/12/16 12:08:13;;;;;;;12.70;6.70;;;;;;;5.04;63.69;101288.31;117081;1187;23570;-60
2021/12/16 12:11:29;;;;;;;11.30;7.00;;;;;;;5.02;64.05;101295.76;117099;1187;23566;-57
2021/12/16 12:14:17;;;;;;;10.30;6.50;;;;;;;5.02;64.30;101292.64;117222;1184;21905;-57
2021/12/16 12:16:55;;;;;;;9.90;6.60;;;;;;;5.06;63.87;101287.52;117122;1182;22008;-59
2021/12/16 12:19:24;;;;;;;10.00;6.70;;;;;;;5.09;63.67;101288.11;117067;1186;21863;-57
2021/12/16 12:21:57;;;;;;;12.30;6.20;;;;;;;5.06;63.88;101286.48;117285;1186;22063;-58
2021/12/16 12:24:25;;;;;;;12.60;7.70;;;;;;;5.06;64.08;101286.30;117489;1183;21901;-60
2021/12/16 12:27:00;;;;;;;11.20;7.50;;;;;;;5.11;64.08;101283.42;117353;1186;21861;-59
2021/12/16 12:29:35;;;;;;;9.80;7.00;;;;;;;5.16;64.24;101283.23;117240;1185;23575;-60
2021/12/16 12:32:18;;;;;;;10.40;6.60;;;;;;;5.19;64.08;101277.92;117294;1188;21865;-60
2021/12/16 12:34:58;;;;;;;11.60;7.10;;;;;;;5.24;64.21;101273.85;117395;1184;23538;-60
2021/12/16 12:37:31;;;;;;;9.00;6.60;;;;;;;5.29;64.05;101271.54;117305;1186;22323;-60
2021/12/16 12:40:15;;;;;;;8.50;6.10;;;;;;;5.34;64.21;101276.54;117248;1186;23456;-60
2021/12/16 13:31:02;;;;;;;12.70;5.90;;;;;;;5.45;64.28;101278.69;117295;1186;22126;-61
2021/12/16 13:33:43;;;;;;;9.60;5.70;;;;;;;5.41;63.88;101282.09;117262;1184;23496;-61
2021/12/16 13:36:26;;;;;;;22.30;5.90;;;;;;;5.42;63.96;101277.74;117335;1186;21961;-60
2021/12/16 13:38:54;;;;;;;7.30;5.10;;;;;;;5.43;63.88;101276.03;117108;1181;23034;-59
2021/12/16 13:41:26;;;;;;;6.30;4.60;;;;;;;5.42;64.35;101277.41;117311;1186;21931;-60
2021/12/16 13:43:55;;;;;;;8.50;4.90;;;;;;;5.47;64.13;101276.31;117335;1186;22914;-60
2021/12/16 13:46:48;;;;;;;7.30;5.20;;;;;;;5.49;64.09;101280.71;117373;1186;21962;-59
2021/12/16 14:04:07;;;;;;;82.60;68.50;;;;;;;5.36;63.99;101277.42;117363;1182;21995;-59
2021/12/16 14:06:39;;;;;;;57.10;46.30;;;;;;;5.34;64.09;101278.61;117384;1185;22833;-59
2021/12/16 14:09:20;;;;;;;30.40;24.10;;;;;;;5.31;64.09;101281.31;117346;1184;21848;-59
2021/12/16 14:23:25;;;;;;;22.50;12.50;;;;;;;5.45;63.72;101284.27;116935;1189;23572;-59
2021/12/16 14:42:44;;;;;;;24.50;16.70;;;;;;;5.43;63.58;101272.39;116959;1186;21871;-60
2021/12/16 14:51:04;;;;;;;21.50;17.60;;;;;;;5.34;64.06;101268.86;116981;1187;24216;-60
2021/12/16 14:53:40;;;;;;;17.30;13.50;;;;;;;5.32;64.02;101269.00;116986;1187;24709;-57
2021/12/16 14:56:11;;;;;;;15.50;11.80;;;;;;;5.31;63.67;101269.15;117284;1184;23514;-57
2021/12/16 14:58:41;;;;;;;42.90;35.10;;;;;;;5.34;63.89;101274.94;117259;1186;23447;-60
2021/12/16 15:01:15;;;;;;;25.70;22.90;;;;;;;5.37;64.11;101273.64;117213;1186;21897;-59
2021/12/16 15:03:44;;;;;;;29.30;25.50;;;;;;;5.40;63.85;101271.95;117123;1190;21868;-57
2021/12/16 15:06:22;;;;;;;26.20;22.40;;;;;;;5.42;63.87;101272.70;117190;1184;23007;-58
2021/12/16 15:09:00;;;;;;;20.60;18.10;;;;;;;5.43;63.96;101269.95;117193;1186;22247;-58
2021/12/16 15:45:17;;;;;;;16.60;13.00;;;;;;;5.32;63.67;101236.27;117350;1185;24210;-58
2021/12/16 15:47:51;;;;;;;19.30;15.80;;;;;;;5.28;63.45;101226.10;117314;1184;22555;-58
2021/12/16 15:50:24;;;;;;;20.10;15.40;;;;;;;5.25;63.91;101226.36;117340;1185;21856;-57
2021/12/16 15:52:54;;;;;;;21.10;13.30;;;;;;;5.19;63.54;101226.92;117324;1182;24152;-58
2021/12/16 15:55:24;;;;;;;21.80;17.70;;;;;;;5.15;63.54;101224.04;117358;1188;22894;-58
2021/12/16 15:57:52;;;;;;;;;;;;;;;5.13;63.69;101218.78;117369;1184;23420;-58
2021/12/16 16:00:21;;;;;;;22.40;16.80;;;;;;;5.11;63.84;101219.06;117319;1186;23564;-59
2021/12/16 16:02:50;;;;;;;37.60;28.70;;;;;;;5.09;63.80;101217.48;117386;1184;23635;-57
2021/12/16 16:05:21;;;;;;;25.60;17.20;;;;;;;5.05;63.59;101220.87;117295;1182;24160;-58
2021/12/16 16:07:57;;;;;;;27.30;18.20;;;;;;;5.03;63.84;101224.64;117286;1186;21862;-60
2021/12/16 16:10:28;;;;;;;44.60;37.00;;;;;;;5.03;63.85;101218.91;117074;1185;23602;-62
2021/12/16 16:13:40;;;;;;;40.60;29.80;;;;;;;5.12;63.93;101214.93;117245;1186;23542;-60
2021/12/16 16:16:11;;;;;;;75.20;48.90;;;;;;;5.18;64.19;101214.55;116831;1190;23809;-60
2021/12/16 16:19:03;;;;;;;47.30;32.50;;;;;;;5.09;64.00;101212.44;116853;1190;21867;-60
2021/12/16 16:21:48;;;;;;;52.20;33.90;;;;;;;5.04;63.98;101211.27;116811;1189;24145;-57
2021/12/16 16:24:44;;;;;;;95.50;63.10;;;;;;;5.02;63.91;101216.27;116969;1188;21865;-60
2021/12/16 16:27:16;;;;;;;51.90;34.80;;;;;;;5.01;63.99;101214.33;116754;1190;21869;-58
2021/12/16 16:29:48;;;;;;;63.30;39.70;;;;;;;5.01;64.26;101212.40;116813;1186;23551;-58
2021/12/16 16:32:17;;;;;;;70.70;45.00;;;;;;;5.01;64.12;101209.80;116830;1189;22910;-58
2021/12/16 16:34:50;;;;;;;69.70;44.00;;;;;;;5.00;64.02;101205.95;116831;1187;22995;-60